Andacollo, Argentina
Current Conditions -  °F | °C
As of 5:00 PM on Friday 24 Oct 2014 (Local Time) from SCIC Reporting Station
Clear Clear  
Wind Chill: 29°   Ceiling: Unl
Heat Index: 29°   Visibility: 6mi
Dew Point:   Wind: 10mph
Humidity: 25%   Direction: 210°SSW
Pressure: 29.91"   Gusts: NA
Location:  37.05°S, 70.07°W
Report Text: SCIC 242000Z 21009KT 170V250 CAVOK 29/07 Q1013
Loading
Personal Weather Stations






























Interactive Weather Map
Tropical Storm Tracking
New forecast layout! Learn more

10-Day Weather Forecast

Advertisements
Track Severe Weather on mobile